createdAt,value
2019-05-19T00:01:45.916Z,99705.77
2019-05-19T00:04:17.238Z,99708.74
2019-05-19T00:06:48.313Z,99717.78
2019-05-19T00:09:19.345Z,99715.08
2019-05-19T00:11:50.361Z,99711.20
2019-05-19T00:14:21.607Z,99710.94
2019-05-19T00:16:53.003Z,99710.91
2019-05-19T00:19:26.668Z,99711.54
2019-05-19T00:21:57.049Z,99707.24
2019-05-19T00:24:28.712Z,99707.73
2019-05-19T00:26:59.805Z,99707.00
2019-05-19T00:29:30.948Z,99705.74
2019-05-19T00:32:02.297Z,99698.94
2019-05-19T00:34:33.700Z,99698.94
2019-05-19T00:37:04.691Z,99701.23
2019-05-19T00:39:36.239Z,99699.41
2019-05-19T00:42:07.414Z,99697.98
2019-05-19T00:44:38.703Z,99692.67
2019-05-19T00:47:09.861Z,99699.81
2019-05-19T00:49:41.883Z,99694.38
2019-05-19T00:52:13.084Z,99690.36
2019-05-19T00:54:44.866Z,99687.86
2019-05-19T00:57:16.437Z,99689.50
2019-05-19T00:59:47.604Z,99686.13
2019-05-19T01:02:18.619Z,99681.54
2019-05-19T01:04:49.862Z,99682.85
2019-05-19T01:07:20.834Z,99684.41
2019-05-19T01:09:51.865Z,99682.89
2019-05-19T01:12:22.817Z,99682.44
2019-05-19T01:14:54.337Z,99680.89
2019-05-19T01:17:25.441Z,99673.42
2019-05-19T01:19:56.522Z,99673.27
2019-05-19T01:22:28.904Z,99661.70
2019-05-19T01:24:59.886Z,99658.67
2019-05-19T01:27:31.220Z,99653.16
2019-05-19T01:30:02.838Z,99648.55
2019-05-19T01:32:33.966Z,99652.78
2019-05-19T01:35:05.156Z,99655.52
2019-05-19T01:37:36.796Z,99659.02
2019-05-19T01:40:08.245Z,99658.31
2019-05-19T01:42:39.375Z,99659.52
2019-05-19T01:45:11.329Z,99652.28
2019-05-19T01:47:42.429Z,99656.03
2019-05-19T01:50:18.505Z,99654.82
2019-05-19T01:52:46.796Z,99656.39
2019-05-19T01:55:18.079Z,99663.87
2019-05-19T01:57:49.699Z,99652.66
2019-05-19T02:00:20.854Z,99639.13
2019-05-19T02:02:51.963Z,99639.13
2019-05-19T02:05:23.004Z,99643.73
2019-05-19T02:07:54.080Z,99646.51
2019-05-19T02:10:25.656Z,99646.17
2019-05-19T02:12:56.917Z,99638.55
2019-05-19T02:15:29.339Z,99640.86
2019-05-19T02:18:00.642Z,99642.91
2019-05-19T02:20:33.576Z,99644.23
2019-05-19T02:23:04.427Z,99646.53
2019-05-19T02:25:35.684Z,99647.34
2019-05-19T02:28:08.215Z,99642.79
2019-05-19T02:30:39.629Z,99655.80
2019-05-19T02:33:10.664Z,99647.50
2019-05-19T02:35:41.906Z,99655.07
2019-05-19T02:38:13.104Z,99653.02
2019-05-19T02:40:48.418Z,99651.08
2019-05-19T02:43:21.646Z,99648.78
2019-05-19T02:45:56.607Z,99647.27
2019-05-19T02:48:29.265Z,99650.41
2019-05-19T02:51:01.088Z,99659.13
2019-05-19T02:53:33.092Z,99656.48
2019-05-19T02:56:04.582Z,99663.11
2019-05-19T02:58:36.373Z,99658.21
2019-05-19T03:01:07.638Z,99654.80
2019-05-19T03:03:39.006Z,99661.21
2019-05-19T03:06:10.016Z,99651.67
2019-05-19T03:08:41.307Z,99656.27
2019-05-19T03:11:12.812Z,99650.76
2019-05-19T03:13:43.791Z,99653.40
2019-05-19T03:16:14.842Z,99657.77
2019-05-19T03:18:45.828Z,99651.81
2019-05-19T03:21:16.833Z,99653.38
2019-05-19T03:23:49.075Z,99655.23
2019-05-19T03:26:20.377Z,99663.45
2019-05-19T03:28:51.732Z,99665.62
2019-05-19T03:31:29.800Z,99663.52
2019-05-19T03:34:00.860Z,99667.67
2019-05-19T03:36:31.857Z,99665.91
2019-05-19T03:39:03.404Z,99670.73
2019-05-19T03:41:35.133Z,99671.55
2019-05-19T03:44:06.385Z,99672.55
2019-05-19T03:46:37.368Z,99666.76
2019-05-19T03:49:08.715Z,99663.03
2019-05-19T03:51:39.990Z,99668.80
2019-05-19T03:54:11.368Z,99672.53
2019-05-19T03:56:43.155Z,99665.30
2019-05-19T03:59:14.196Z,99681.69
2019-05-19T04:01:45.243Z,99674.81
2019-05-19T04:04:16.611Z,99674.50
2019-05-19T04:06:47.963Z,99678.02
2019-05-19T04:09:18.967Z,99672.87
2019-05-19T04:11:49.992Z,99672.89
2019-05-19T04:14:20.976Z,99665.91
2019-05-19T04:16:52.400Z,99673.16
2019-05-19T04:19:23.368Z,99672.30
2019-05-19T04:21:54.478Z,99671.35
2019-05-19T04:24:25.458Z,99673.46
2019-05-19T04:26:58.058Z,99674.47
2019-05-19T04:29:29.600Z,99676.52
2019-05-19T04:32:00.577Z,99683.05
2019-05-19T04:34:32.897Z,99683.14
2019-05-19T04:37:05.632Z,99689.13
2019-05-19T04:39:37.299Z,99682.19
2019-05-19T04:42:08.604Z,99690.24
2019-05-19T04:44:40.058Z,99688.92
2019-05-19T04:47:11.153Z,99693.03
2019-05-19T04:49:42.138Z,99693.05
2019-05-19T04:52:13.466Z,99684.95
2019-05-19T04:54:44.620Z,99688.22
2019-05-19T04:57:15.823Z,99693.95
2019-05-19T04:59:47.216Z,99692.12
2019-05-19T05:02:18.624Z,99691.61
2019-05-19T05:04:50.005Z,99687.94
2019-05-19T05:07:21.408Z,99682.28
2019-05-19T05:09:52.837Z,99685.36
2019-05-19T05:12:23.822Z,99686.35
2019-05-19T05:14:55.838Z,99683.48
2019-05-19T05:17:27.326Z,99679.67
2019-05-19T05:19:59.335Z,99677.12
2019-05-19T05:22:30.389Z,99671.53
2019-05-19T05:25:01.738Z,99672.49
2019-05-19T05:27:32.838Z,99674.30
2019-05-19T05:30:04.112Z,99673.73
2019-05-19T05:32:35.147Z,99672.99
2019-05-19T05:35:07.437Z,99676.27
2019-05-19T05:37:38.746Z,99671.14
2019-05-19T05:40:10.471Z,99680.62
2019-05-19T05:42:41.943Z,99678.50
2019-05-19T05:45:13.338Z,99671.73
2019-05-19T05:47:44.363Z,99668.26
2019-05-19T05:50:15.745Z,99675.68
2019-05-19T05:52:47.073Z,99674.55
2019-05-19T05:55:18.272Z,99670.88
2019-05-19T05:57:49.394Z,99659.24
2019-05-19T06:00:22.709Z,99665.64
2019-05-19T06:02:53.965Z,99669.56
2019-05-19T06:05:25.332Z,99665.22
2019-05-19T06:07:56.518Z,99656.48
2019-05-19T06:10:28.229Z,99658.53
2019-05-19T06:12:59.571Z,99658.45
2019-05-19T06:15:30.646Z,99655.04
2019-05-19T06:18:02.037Z,99654.58
2019-05-19T06:20:33.201Z,99659.23
2019-05-19T06:23:04.656Z,99661.65
2019-05-19T06:25:36.271Z,99655.55
2019-05-19T06:28:07.365Z,99660.53
2019-05-19T06:30:38.451Z,99652.52
2019-05-19T06:33:09.972Z,99654.01
2019-05-19T06:35:45.418Z,99657.30
2019-05-19T06:38:20.598Z,99650.78
2019-05-19T06:40:51.849Z,99657.72
2019-05-19T06:43:23.071Z,99644.61
2019-05-19T06:45:54.443Z,99643.31
2019-05-19T06:48:25.660Z,99640.45
2019-05-19T06:50:56.805Z,99638.77
2019-05-19T06:53:28.139Z,99648.00
2019-05-19T06:55:59.676Z,99638.94
2019-05-19T06:58:31.491Z,99632.42
2019-05-19T07:01:02.847Z,99638.96
2019-05-19T07:03:34.243Z,99641.95
2019-05-19T07:06:05.413Z,99636.91
2019-05-19T07:08:36.682Z,99635.53
2019-05-19T07:11:07.757Z,99634.19
2019-05-19T07:13:39.592Z,99646.78
2019-05-19T07:16:10.719Z,99633.13
2019-05-19T07:18:41.822Z,99638.84
2019-05-19T07:21:18.110Z,99633.58
2019-05-19T07:23:50.519Z,99634.19
2019-05-19T07:26:22.160Z,99635.30
2019-05-19T07:28:53.485Z,99633.00
2019-05-19T07:31:24.749Z,99629.09
2019-05-19T07:33:55.701Z,99631.67
2019-05-19T07:36:27.179Z,99634.48
2019-05-19T07:38:58.436Z,99630.55
2019-05-19T07:41:30.196Z,99637.91
2019-05-19T07:44:01.641Z,99629.66
2019-05-19T07:46:32.670Z,99628.28
2019-05-19T07:49:03.768Z,99629.63
2019-05-19T07:51:35.288Z,99634.47
2019-05-19T07:54:07.569Z,99632.98
2019-05-19T07:56:39.104Z,99633.83
2019-05-19T07:59:14.194Z,99628.44
2019-05-19T08:01:45.249Z,99628.55
2019-05-19T08:04:16.389Z,99635.67
2019-05-19T08:06:48.150Z,99634.31
2019-05-19T08:09:19.203Z,99629.34
2019-05-19T08:11:50.263Z,99628.03
2019-05-19T08:14:21.333Z,99629.49
2019-05-19T08:16:53.099Z,99618.75
2019-05-19T08:19:24.091Z,99623.41
2019-05-19T08:21:55.154Z,99624.64
2019-05-19T08:24:26.299Z,99623.16
2019-05-19T08:26:57.580Z,99612.80
2019-05-19T08:29:29.274Z,99621.17
2019-05-19T08:32:00.860Z,99624.47
2019-05-19T08:34:32.241Z,99615.98
2019-05-19T08:37:03.376Z,99620.55
2019-05-19T08:39:35.081Z,99615.50
2019-05-19T08:42:06.094Z,99616.38
2019-05-19T08:44:37.136Z,99607.05
2019-05-19T08:47:08.111Z,99609.87
2019-05-19T08:49:39.455Z,99608.45
2019-05-19T08:52:10.814Z,99609.65
2019-05-19T08:54:42.172Z,99610.22
2019-05-19T08:57:13.226Z,99609.04
2019-05-19T08:59:44.370Z,99612.56
2019-05-19T09:02:15.685Z,99611.55
2019-05-19T09:04:46.950Z,99606.67
2019-05-19T09:07:18.330Z,99603.41
2019-05-19T09:09:50.061Z,99603.28
2019-05-19T09:12:21.594Z,99604.00
2019-05-19T09:14:52.706Z,99600.23
2019-05-19T09:17:24.179Z,99595.21
2019-05-19T09:19:58.442Z,99601.14
2019-05-19T09:22:30.893Z,99597.06
2019-05-19T09:25:02.276Z,99591.63
2019-05-19T09:27:33.644Z,99591.85
2019-05-19T09:30:05.670Z,99586.11
2019-05-19T09:32:38.970Z,99581.47
2019-05-19T09:35:10.192Z,99580.12
2019-05-19T09:37:41.208Z,99583.52
2019-05-19T09:40:12.605Z,99577.41
2019-05-19T09:42:44.156Z,99574.13
2019-05-19T09:45:15.553Z,99580.42
2019-05-19T09:47:47.513Z,99576.72
2019-05-19T09:50:18.987Z,99581.33
2019-05-19T09:52:50.063Z,99576.67
2019-05-19T09:55:21.089Z,99579.70
2019-05-19T09:57:52.782Z,99570.00
2019-05-19T10:00:23.933Z,99581.11
2019-05-19T10:02:55.252Z,99574.70
2019-05-19T10:05:26.241Z,99574.09
2019-05-19T10:07:57.615Z,99577.02
2019-05-19T10:10:58.808Z,99580.13
2019-05-19T10:13:29.901Z,99572.25
2019-05-19T10:16:01.783Z,99577.88
2019-05-19T10:18:32.809Z,99570.14
2019-05-19T10:21:03.991Z,99568.25
2019-05-19T10:23:34.992Z,99572.05
2019-05-19T10:26:06.029Z,99566.20
2019-05-19T10:28:37.120Z,99565.37
2019-05-19T10:31:08.207Z,99560.49
2019-05-19T10:33:39.483Z,99553.69
2019-05-19T10:36:10.474Z,99559.37
2019-05-19T10:38:41.718Z,99549.74
2019-05-19T10:41:13.041Z,99547.12
2019-05-19T10:43:44.436Z,99549.89
2019-05-19T10:46:15.574Z,99549.88
2019-05-19T10:48:47.664Z,99563.91
2019-05-19T10:51:18.937Z,99551.85
2019-05-19T10:53:50.319Z,99553.73
2019-05-19T10:56:22.073Z,99564.69
2019-05-19T10:58:53.525Z,99553.02
2019-05-19T11:01:24.600Z,99553.03
2019-05-19T11:03:57.462Z,99539.05
2019-05-19T11:06:29.027Z,99544.35
2019-05-19T11:09:00.414Z,99543.23
2019-05-19T11:11:32.761Z,99539.66
2019-05-19T11:14:03.954Z,99526.42
2019-05-19T11:16:35.328Z,99539.59
2019-05-19T11:19:06.377Z,99534.89
2019-05-19T11:21:37.745Z,99532.77
2019-05-19T11:24:08.849Z,99536.27
2019-05-19T11:26:39.921Z,99542.44
2019-05-19T11:29:10.923Z,99531.67
2019-05-19T11:31:42.270Z,99528.20
2019-05-19T11:34:13.314Z,99528.01
2019-05-19T11:36:44.361Z,99524.47
2019-05-19T11:39:15.704Z,99520.54
2019-05-19T11:41:47.013Z,99521.69
2019-05-19T11:44:18.308Z,99529.11
2019-05-19T11:46:49.375Z,99534.75
2019-05-19T11:49:20.844Z,99530.18
2019-05-19T11:51:51.904Z,99530.06
2019-05-19T11:54:23.139Z,99530.06
2019-05-19T11:56:54.385Z,99518.09
2019-05-19T11:59:25.390Z,99519.38
2019-05-19T12:01:56.577Z,99513.77
2019-05-19T12:04:27.640Z,99517.03
2019-05-19T12:06:59.788Z,99509.28
2019-05-19T12:09:31.059Z,99515.20
2019-05-19T12:12:02.140Z,99514.78
2019-05-19T12:14:34.412Z,99508.86
2019-05-19T12:17:06.556Z,99505.91
2019-05-19T12:19:37.913Z,99509.50
2019-05-19T12:22:09.214Z,99504.76
2019-05-19T12:24:40.201Z,99505.00
2019-05-19T12:27:11.185Z,99503.29
2019-05-19T12:29:42.176Z,99497.09
2019-05-19T12:32:13.439Z,99498.47
2019-05-19T12:34:45.397Z,99500.01
2019-05-19T12:37:16.355Z,99487.27
2019-05-19T12:39:47.342Z,99489.02
2019-05-19T12:42:18.394Z,99491.32
2019-05-19T12:44:50.004Z,99484.92
2019-05-19T12:47:21.658Z,99485.72
2019-05-19T12:49:52.901Z,99477.44
2019-05-19T12:52:24.611Z,99489.52
2019-05-19T12:54:55.638Z,99480.61
2019-05-19T12:57:27.038Z,99484.07
2019-05-19T12:59:58.198Z,99471.25
2019-05-19T13:02:29.427Z,99479.95
2019-05-19T13:05:05.480Z,99467.70
2019-05-19T13:07:33.446Z,99470.14
2019-05-19T13:10:05.860Z,99469.39
2019-05-19T13:12:37.163Z,99465.56
2019-05-19T13:15:08.501Z,99467.77
2019-05-19T13:17:39.577Z,99462.42
2019-05-19T13:20:10.869Z,99454.11
2019-05-19T13:22:42.457Z,99450.20
2019-05-19T13:25:13.564Z,99460.69
2019-05-19T13:27:44.848Z,99457.32
2019-05-19T13:30:16.098Z,99453.86
2019-05-19T13:32:47.202Z,99446.83
2019-05-19T13:35:18.274Z,99442.77
2019-05-19T13:37:49.723Z,99436.06
2019-05-19T13:40:20.803Z,99438.79
2019-05-19T13:42:51.772Z,99447.05
2019-05-19T13:45:23.159Z,99447.23
2019-05-19T13:47:54.422Z,99437.84
2019-05-19T13:50:25.504Z,99439.15
2019-05-19T13:52:56.841Z,99438.86
2019-05-19T13:55:28.323Z,99444.19
2019-05-19T13:57:59.308Z,99446.13
2019-05-19T14:00:30.344Z,99448.64
2019-05-19T14:03:01.407Z,99459.16
2019-05-19T14:05:32.680Z,99445.44
2019-05-19T14:08:03.692Z,99448.17
2019-05-19T14:10:35.416Z,99442.45
2019-05-19T14:13:06.432Z,99445.37
2019-05-19T14:15:37.856Z,99431.70
2019-05-19T14:18:09.575Z,99438.59
2019-05-19T14:20:40.636Z,99433.62
2019-05-19T14:23:11.893Z,99427.30
2019-05-19T14:25:42.993Z,99437.70
2019-05-19T14:28:14.301Z,99427.34
2019-05-19T14:30:45.675Z,99439.19
2019-05-19T14:33:16.942Z,99437.48
2019-05-19T14:35:48.216Z,99434.53
2019-05-19T14:38:19.666Z,99440.50
2019-05-19T14:40:51.232Z,99449.20
2019-05-19T14:43:23.014Z,99440.70
2019-05-19T14:45:54.337Z,99440.59
2019-05-19T14:48:25.573Z,99446.79
2019-05-19T14:50:57.015Z,99448.73
2019-05-19T14:53:29.240Z,99451.13
2019-05-19T14:56:00.799Z,99448.53
2019-05-19T14:58:31.819Z,99446.30
2019-05-19T15:01:03.089Z,99441.69
2019-05-19T15:03:34.214Z,99445.52
2019-05-19T15:06:05.336Z,99448.88
2019-05-19T15:08:36.944Z,99446.83
2019-05-19T15:11:07.914Z,99448.08
2019-05-19T15:13:39.434Z,99446.97
2019-05-19T15:16:10.623Z,99449.47
2019-05-19T15:18:41.943Z,99447.75
2019-05-19T15:21:13.620Z,99440.02
2019-05-19T15:23:44.952Z,99439.29
2019-05-19T15:26:16.153Z,99440.73
2019-05-19T15:28:47.303Z,99429.52
2019-05-19T15:31:20.490Z,99432.99
2019-05-19T15:33:51.971Z,99438.03
2019-05-19T15:36:23.325Z,99434.09
2019-05-19T15:38:54.808Z,99429.03
2019-05-19T15:41:26.087Z,99426.40
2019-05-19T15:43:57.062Z,99423.00
2019-05-19T15:46:28.427Z,99420.19
2019-05-19T15:48:59.379Z,99420.29
2019-05-19T15:51:37.124Z,99412.77
2019-05-19T15:54:03.882Z,99409.78
2019-05-19T15:56:34.942Z,99403.80
2019-05-19T15:59:06.394Z,99398.73
2019-05-19T16:01:37.403Z,99401.77
2019-05-19T16:04:08.349Z,99390.95
2019-05-19T16:06:39.380Z,99394.26
2019-05-19T16:09:10.719Z,99391.78
2019-05-19T16:11:41.972Z,99393.56
2019-05-19T16:14:14.520Z,99393.56
2019-05-19T16:16:45.484Z,99390.73
2019-05-19T16:19:16.753Z,99389.62
2019-05-19T16:21:48.081Z,99388.97
2019-05-19T16:24:19.304Z,99391.77
2019-05-19T16:26:50.300Z,99384.69
2019-05-19T16:29:21.814Z,99388.20
2019-05-19T16:31:53.147Z,99378.69
2019-05-19T16:34:25.344Z,99383.12
2019-05-19T16:36:56.346Z,99381.02
2019-05-19T16:39:27.940Z,99384.67
2019-05-19T16:41:58.935Z,99382.01
2019-05-19T16:44:30.158Z,99384.06
2019-05-19T16:47:01.209Z,99384.39
2019-05-19T16:49:32.909Z,99381.76
2019-05-19T16:52:03.975Z,99375.34
2019-05-19T16:54:37.583Z,99382.33
2019-05-19T16:57:09.221Z,99375.98
2019-05-19T16:59:46.341Z,99372.84
2019-05-19T17:02:17.342Z,99371.84
2019-05-19T17:04:49.339Z,99379.41
2019-05-19T17:07:20.727Z,99380.45
2019-05-19T17:09:51.697Z,99374.44
2019-05-19T17:12:22.731Z,99370.90
2019-05-19T17:14:53.789Z,99374.64
2019-05-19T17:17:24.817Z,99376.82
2019-05-19T17:19:55.831Z,99370.59
2019-05-19T17:22:28.159Z,99375.94
2019-05-19T17:25:00.415Z,99378.53
2019-05-19T17:27:32.677Z,99378.88
2019-05-19T17:30:03.823Z,99376.87
2019-05-19T17:32:35.166Z,99369.70
2019-05-19T17:35:07.016Z,99376.25
2019-05-19T17:37:38.954Z,99375.53
2019-05-19T17:40:10.860Z,99374.01
2019-05-19T17:42:42.611Z,99382.81
2019-05-19T17:45:14.300Z,99385.24
2019-05-19T17:47:45.817Z,99387.20
2019-05-19T17:50:20.561Z,99387.58
2019-05-19T17:52:51.873Z,99393.76
2019-05-19T17:55:22.961Z,99389.57
2019-05-19T17:57:54.387Z,99386.96
2019-05-19T18:00:37.950Z,99387.86
2019-05-19T18:03:09.916Z,99393.98
2019-05-19T18:05:43.415Z,99387.20
2019-05-19T18:08:15.954Z,99392.59
2019-05-19T18:10:48.101Z,99394.12
2019-05-19T18:13:19.455Z,99381.41
2019-05-19T18:15:50.667Z,99394.45
2019-05-19T18:18:24.621Z,99395.06
2019-05-19T18:20:56.192Z,99390.74
2019-05-19T18:23:28.162Z,99390.74
2019-05-19T18:25:59.483Z,99390.74
2019-05-19T18:28:30.613Z,99397.80
2019-05-19T18:31:01.671Z,99393.00
2019-05-19T18:33:33.428Z,99397.11
2019-05-19T18:36:04.649Z,99401.04
2019-05-19T18:38:35.890Z,99401.42
2019-05-19T18:41:06.973Z,99404.56
2019-05-19T18:43:38.267Z,99406.37
2019-05-19T18:46:09.933Z,99406.52
2019-05-19T18:48:40.978Z,99406.42
2019-05-19T18:51:13.064Z,99405.45
2019-05-19T18:53:44.143Z,99405.14
2019-05-19T18:56:15.704Z,99400.73
2019-05-19T18:58:46.872Z,99405.14
2019-05-19T19:01:18.138Z,99409.92
2019-05-19T19:03:49.327Z,99404.59
2019-05-19T19:06:20.814Z,99413.05
2019-05-19T19:08:51.974Z,99410.02
2019-05-19T19:11:23.549Z,99409.41
2019-05-19T19:13:55.820Z,99406.45
2019-05-19T19:16:27.203Z,99409.36
2019-05-19T19:18:58.320Z,99407.10
2019-05-19T19:21:29.514Z,99410.09
2019-05-19T19:24:01.753Z,99415.91
2019-05-19T19:26:33.026Z,99418.42
2019-05-19T19:29:04.061Z,99416.83
2019-05-19T19:31:47.728Z,99428.77
2019-05-19T19:34:08.573Z,99430.39
2019-05-19T19:36:39.715Z,99441.59
2019-05-19T19:39:12.427Z,99444.42
2019-05-19T19:41:43.726Z,99444.42
2019-05-19T19:44:14.779Z,99438.88
2019-05-19T19:46:46.365Z,99446.66
2019-05-19T19:49:17.553Z,99451.78
2019-05-19T19:51:49.218Z,99446.80
2019-05-19T19:54:20.944Z,99456.19
2019-05-19T19:56:51.955Z,99451.15
2019-05-19T19:59:23.295Z,99454.44
2019-05-19T20:01:54.608Z,99454.89
2019-05-19T20:04:26.045Z,99456.55
2019-05-19T20:06:57.203Z,99459.25
2019-05-19T20:09:30.651Z,99463.16
2019-05-19T20:12:01.907Z,99467.14
2019-05-19T20:14:32.976Z,99471.88
2019-05-19T20:17:07.351Z,99471.57
2019-05-19T20:19:38.670Z,99468.38
2019-05-19T20:22:09.737Z,99472.64
2019-05-19T20:24:41.614Z,99481.06
2019-05-19T20:27:12.632Z,99478.38
2019-05-19T20:29:44.044Z,99483.32
2019-05-19T20:32:15.055Z,99481.66
2019-05-19T20:34:46.401Z,99483.45
2019-05-19T20:37:17.408Z,99490.19
2019-05-19T20:39:50.958Z,99484.41
2019-05-19T20:42:23.345Z,99482.51
2019-05-19T20:44:54.335Z,99485.23
2019-05-19T20:47:25.463Z,99482.20
2019-05-19T20:49:56.466Z,99480.55
2019-05-19T20:52:27.807Z,99480.86
2019-05-19T20:54:58.845Z,99479.73
2019-05-19T20:57:29.871Z,99477.15
2019-05-19T21:00:01.147Z,99482.23
2019-05-19T21:02:32.161Z,99478.21
2019-05-19T21:05:03.289Z,99485.52
2019-05-19T21:07:34.377Z,99478.84
2019-05-19T21:10:06.395Z,99481.22
2019-05-19T21:12:38.968Z,99476.55
2019-05-19T21:15:10.451Z,99482.23
2019-05-19T21:17:42.686Z,99479.04
2019-05-19T21:20:14.308Z,99477.03
2019-05-19T21:22:45.527Z,99475.58
2019-05-19T21:25:16.746Z,99475.90
2019-05-19T21:27:48.403Z,99475.75
2019-05-19T21:30:21.760Z,99477.58
2019-05-19T21:32:52.718Z,99476.90
2019-05-19T21:35:24.044Z,99476.56
2019-05-19T21:37:56.028Z,99468.05
2019-05-19T21:40:27.028Z,99473.90
2019-05-19T21:42:58.372Z,99468.70
2019-05-19T21:45:29.356Z,99468.88
2019-05-19T21:48:00.379Z,99470.03
2019-05-19T21:50:31.949Z,99471.71
2019-05-19T21:53:06.383Z,99477.39
2019-05-19T21:55:36.292Z,99476.08
2019-05-19T21:58:07.528Z,99475.54
2019-05-19T22:00:39.078Z,99470.69
2019-05-19T22:03:10.417Z,99470.31
2019-05-19T22:05:52.808Z,99467.81
2019-05-19T22:08:16.103Z,99470.98
2019-05-19T22:10:47.270Z,99476.02
2019-05-19T22:13:18.315Z,99475.59
2019-05-19T22:15:49.694Z,99474.28
2019-05-19T22:18:20.782Z,99483.00
2019-05-19T22:20:52.100Z,99475.42
2019-05-19T22:23:23.442Z,99472.72
2019-05-19T22:25:54.753Z,99473.53
2019-05-19T22:28:26.432Z,99476.67
2019-05-19T22:30:57.690Z,99476.84
2019-05-19T22:33:29.205Z,99474.73
2019-05-19T22:36:00.801Z,99474.52
2019-05-19T22:38:32.066Z,99481.87
2019-05-19T22:41:03.130Z,99480.75
2019-05-19T22:43:34.095Z,99477.63
2019-05-19T22:46:05.269Z,99481.39
2019-05-19T22:48:37.873Z,99474.59
2019-05-19T22:51:09.014Z,99475.98
2019-05-19T22:53:41.076Z,99465.44
2019-05-19T22:56:12.147Z,99464.53
2019-05-19T22:58:43.110Z,99461.20
2019-05-19T23:01:14.688Z,99462.55
2019-05-19T23:03:45.685Z,99469.30
2019-05-19T23:06:17.402Z,99468.17
2019-05-19T23:08:48.827Z,99466.73
2019-05-19T23:11:19.979Z,99468.21
2019-05-19T23:13:53.953Z,99466.08
2019-05-19T23:16:25.009Z,99470.56
2019-05-19T23:18:57.687Z,99475.48
2019-05-19T23:21:29.567Z,99475.69
2019-05-19T23:24:01.416Z,99473.00
2019-05-19T23:26:32.423Z,99477.73
2019-05-19T23:29:03.727Z,99471.24
2019-05-19T23:31:35.116Z,99476.59
2019-05-19T23:34:06.458Z,99480.03
2019-05-19T23:36:37.529Z,99481.38
2019-05-19T23:39:08.595Z,99475.89
2019-05-19T23:41:39.568Z,99474.55
2019-05-19T23:44:10.895Z,99470.45
2019-05-19T23:46:42.396Z,99464.70
2019-05-19T23:49:13.357Z,99459.13
2019-05-19T23:51:45.352Z,99457.66
2019-05-19T23:54:16.598Z,99463.23
2019-05-19T23:56:48.254Z,99460.61
2019-05-19T23:59:19.597Z,99461.25
